createdAt,value
2016-06-02T12:44:41.475Z,29.47
2016-06-02T12:45:41.497Z,29.15
2016-06-02T12:46:41.472Z,28.7
2016-06-02T12:47:41.524Z,28.43
2016-06-02T12:48:41.327Z,28.23
2016-06-02T12:49:41.302Z,27.98
2016-06-02T12:50:41.447Z,27.76
2016-06-02T12:51:41.481Z,27.6
2016-06-02T12:52:41.469Z,27.52
2016-06-02T12:53:41.254Z,27.43
2016-06-02T12:54:41.930Z,27.37
2016-06-02T12:55:41.558Z,27.3
2016-06-02T12:56:41.421Z,27.25
2016-06-02T12:57:41.455Z,27.3
2016-06-02T12:58:41.396Z,27.28
2016-06-02T12:59:41.383Z,27.22
2016-06-02T13:00:41.387Z,27.23
2016-06-02T13:01:41.390Z,27.25
2016-06-02T13:02:41.220Z,27.23
2016-06-02T13:03:41.379Z,27.21
2016-06-02T13:04:41.367Z,27.15
2016-06-02T13:05:41.401Z,27.15
2016-06-02T13:06:41.356Z,27.07
2016-06-02T13:07:41.359Z,27
2016-06-02T13:08:41.362Z,27.06
2016-06-02T13:09:41.349Z,27.11
2016-06-02T13:10:41.821Z,27
2016-06-02T13:11:41.339Z,27
2016-06-02T13:12:41.326Z,27
2016-06-02T13:13:41.329Z,27
2016-06-02T13:14:41.316Z,27.04
2016-06-02T13:15:41.318Z,27
2016-06-02T13:16:41.290Z,27
2016-06-02T13:17:41.309Z,27.04
2016-06-02T13:18:41.311Z,27.03
2016-06-02T13:19:41.283Z,26.94
2016-06-02T13:20:41.269Z,26.66
2016-06-02T13:21:41.288Z,26.59
2016-06-02T13:22:41.275Z,26.57
2016-06-02T13:23:41.278Z,26.64
2016-06-02T13:24:41.733Z,26.7
2016-06-02T13:25:41.674Z,26.64
2016-06-02T13:26:41.285Z,26.48
2016-06-02T13:27:41.272Z,26.32
2016-06-02T13:28:41.291Z,26.13
2016-06-02T13:29:41.231Z,25.91
2016-06-02T13:30:41.218Z,25.73
2016-06-02T13:31:41.221Z,25.63
2016-06-02T13:32:41.239Z,25.66
2016-06-02T13:33:41.196Z,25.37
2016-06-02T13:34:41.260Z,25.27
2016-06-02T13:35:41.201Z,25.17
2016-06-02T13:36:41.032Z,25.17
2016-06-02T13:37:41.190Z,25.02
2016-06-02T13:38:41.193Z,24.93
2016-06-02T13:39:41.195Z,24.82
2016-06-02T13:40:41.183Z,24.78
2016-06-02T13:41:41.170Z,24.82
2016-06-02T13:42:41.157Z,24.58
2016-06-02T13:43:41.160Z,24.47
2016-06-02T13:44:41.131Z,24.09
2016-06-02T13:45:40.992Z,23.27
2016-06-02T13:46:41.137Z,22.42
2016-06-02T13:47:41.170Z,21.92
2016-06-02T13:48:41.126Z,21.76
2016-06-02T13:49:41.113Z,21.17
2016-06-02T13:50:41.100Z,20.81
2016-06-02T13:51:41.119Z,20.73
2016-06-02T13:52:41.106Z,20.6
2016-06-02T13:53:41.077Z,20.69
2016-06-02T13:54:41.173Z,20.69
2016-06-02T13:55:41.083Z,20.63
2016-06-02T13:56:41.069Z,20.49
2016-06-02T13:57:41.072Z,20.54
2016-06-02T13:58:41.075Z,20.72
2016-06-02T13:59:40.890Z,20.94
2016-06-02T14:00:41.033Z,21.04
2016-06-02T14:01:41.021Z,21.11
2016-06-02T14:02:41.007Z,21.11
2016-06-02T14:03:41.072Z,20.82
2016-06-02T14:04:41.013Z,20.72
2016-06-02T14:05:41.016Z,20.33
2016-06-02T14:06:40.971Z,20.23
2016-06-02T14:07:40.802Z,19.89
2016-06-02T14:08:40.977Z,19.28
2016-06-02T14:09:41.870Z,19.41
2016-06-02T14:10:41.091Z,19.25
2016-06-02T14:11:40.938Z,19.15
2016-06-02T14:12:40.925Z,18.27
2016-06-02T14:13:40.756Z,17.78
2016-06-02T14:14:40.759Z,18
2016-06-02T14:15:40.980Z,18.12
2016-06-02T14:16:40.889Z,18.26
2016-06-02T14:17:40.735Z,18.38
2016-06-02T14:18:40.707Z,18.3
2016-06-02T14:19:40.850Z,18.47
2016-06-02T14:20:40.853Z,18.8
2016-06-02T14:21:40.840Z,18.95
2016-06-02T14:22:40.827Z,19.16
2016-06-02T14:23:40.814Z,19.43
2016-06-02T14:24:40.910Z,19.51
2016-06-02T14:25:40.897Z,19.56
2016-06-02T14:26:43.259Z,19.71
2016-06-02T14:27:40.808Z,19.53
2016-06-02T14:28:40.797Z,19.76
2016-06-02T14:29:40.627Z,20.03
2016-06-02T14:30:40.599Z,20.2
2016-06-02T14:31:43.930Z,20.35
2016-06-02T14:32:40.729Z,20.73
2016-06-02T14:33:40.731Z,20.88
2016-06-02T14:34:40.718Z,21.15
2016-06-02T14:35:40.706Z,20.97
2016-06-02T14:36:41.490Z,20.92
2016-06-02T14:37:40.696Z,20.82
2016-06-02T14:38:40.652Z,20.73
2016-06-02T14:39:40.654Z,20.69
2016-06-02T14:40:40.640Z,20.6
2016-06-02T14:41:42.050Z,20.82
2016-06-02T14:42:40.615Z,20.66
2016-06-02T14:43:40.618Z,20.43
2016-06-02T14:44:40.621Z,20.31
2016-06-02T14:45:40.593Z,20.22
2016-06-02T14:46:42.094Z,20.22
2016-06-02T14:47:40.565Z,20.14
2016-06-02T14:48:40.584Z,20.14
2016-06-02T14:49:40.556Z,20.08
2016-06-02T14:50:40.590Z,20.13
2016-06-02T14:51:40.530Z,20.11
2016-06-02T14:52:40.579Z,20.1
2016-06-02T14:53:40.519Z,20.16
2016-06-02T14:54:40.366Z,20.28
2016-06-02T14:55:40.509Z,20.25
2016-06-02T14:56:40.544Z,20.17
2016-06-02T14:57:40.328Z,20.29
2016-06-02T14:58:40.377Z,19.78
2016-06-02T14:59:40.457Z,19.92
2016-06-02T15:00:40.508Z,20.41
2016-06-02T15:01:40.432Z,20.33
2016-06-02T15:02:40.450Z,20.47
2016-06-02T15:03:40.421Z,20.43
2016-06-02T15:04:40.455Z,20.49
2016-06-02T15:05:40.411Z,20.47
2016-06-02T15:06:40.227Z,20.41
2016-06-02T15:07:40.401Z,20.36
2016-06-02T15:08:40.388Z,20.44
2016-06-02T15:09:40.375Z,20.31
2016-06-02T15:10:41.424Z,20.35
2016-06-02T15:11:40.349Z,20.31
2016-06-02T15:12:40.337Z,20.43
2016-06-02T15:13:40.323Z,20.33
2016-06-02T15:14:40.326Z,20.32
2016-06-02T15:15:40.297Z,20.33
2016-06-02T15:16:40.316Z,20.43
2016-06-02T15:17:40.303Z,20.41
2016-06-02T15:18:40.274Z,20.44
2016-06-02T15:19:40.277Z,20.49
2016-06-02T15:20:40.311Z,20.43
2016-06-02T15:21:40.267Z,20.48
2016-06-02T15:22:40.239Z,20.66
2016-06-02T15:23:40.241Z,20.72
2016-06-02T15:24:40.244Z,20.74
2016-06-02T15:25:40.481Z,20.79
2016-06-02T15:26:40.202Z,20.84
2016-06-02T15:27:40.048Z,20.92
2016-06-02T15:28:40.192Z,20.91
2016-06-02T15:29:40.179Z,21.02
2016-06-02T15:30:40.166Z,21.13
2016-06-02T15:31:40.153Z,21.17
2016-06-02T15:32:40.156Z,20.97
2016-06-02T15:33:40.033Z,20.92
2016-06-02T15:34:40.146Z,20.89
2016-06-02T15:35:40.117Z,20.84
2016-06-02T15:36:40.105Z,20.67
2016-06-02T15:37:40.092Z,20.67
2016-06-02T15:38:40.078Z,20.66
2016-06-02T15:39:40.785Z,20.69
2016-06-02T15:40:40.130Z,20.82
2016-06-02T15:41:40.133Z,20.84
2016-06-02T15:42:40.105Z,20.72
2016-06-02T15:43:40.029Z,20.7
2016-06-02T15:44:40.031Z,20.73
2016-06-02T15:45:39.862Z,20.7
2016-06-02T15:46:40.021Z,20.51
2016-06-02T15:47:40.024Z,20.6
2016-06-02T15:48:39.996Z,20.67
2016-06-02T15:49:40.014Z,20.69
2016-06-02T15:50:39.814Z,20.69
2016-06-02T15:51:40.082Z,20.69
2016-06-02T15:52:39.975Z,20.94
2016-06-02T15:53:40.025Z,21.15
2016-06-02T15:54:40.465Z,21.09
2016-06-02T15:55:39.953Z,21.04
2016-06-02T15:56:39.939Z,20.97
2016-06-02T15:57:39.941Z,21.09
2016-06-02T15:58:39.913Z,21.07
2016-06-02T15:59:39.917Z,21
2016-06-02T16:00:39.903Z,20.89
2016-06-02T16:01:39.984Z,20.91
2016-06-02T16:02:39.893Z,20.81
2016-06-02T16:03:39.880Z,20.64
2016-06-02T16:04:39.710Z,20.66
2016-06-02T16:05:39.870Z,20.7
2016-06-02T16:06:39.841Z,20.79
2016-06-02T16:07:39.828Z,20.79
2016-06-02T16:08:39.816Z,20.67
2016-06-02T16:09:40.271Z,20.57
2016-06-02T16:10:39.835Z,20.7
2016-06-02T16:11:39.808Z,20.62
2016-06-02T16:12:39.795Z,20.63
2016-06-02T16:13:39.797Z,20.63
2016-06-02T16:14:39.769Z,20.73
2016-06-02T16:15:39.771Z,20.57
2016-06-02T16:16:39.587Z,20.54
2016-06-02T16:17:39.761Z,20.58
2016-06-02T16:18:39.749Z,20.55
2016-06-02T16:19:39.735Z,20.54
2016-06-02T16:20:39.706Z,20.51
2016-06-02T16:21:39.709Z,20.55
2016-06-02T16:22:39.712Z,20.63
2016-06-02T16:23:39.699Z,20.69
2016-06-02T16:24:40.358Z,20.51
2016-06-02T16:25:40.126Z,20.57
2016-06-02T16:26:39.692Z,20.54
2016-06-02T16:27:39.678Z,20.48
2016-06-02T16:28:39.651Z,20.43
2016-06-02T16:29:39.653Z,20.47
2016-06-02T16:30:39.640Z,20.44
2016-06-02T16:31:39.642Z,20.4
2016-06-02T16:32:39.614Z,20.52
2016-06-02T16:33:39.601Z,20.33
2016-06-02T16:34:39.604Z,20.29
2016-06-02T16:35:39.591Z,20.41
2016-06-02T16:36:39.656Z,20.4
2016-06-02T16:37:39.581Z,20.4
2016-06-02T16:38:39.552Z,20.31
2016-06-02T16:39:39.571Z,20.25
2016-06-02T16:40:40.199Z,20.17
2016-06-02T16:41:39.544Z,20.28
2016-06-02T16:42:39.532Z,20.35
2016-06-02T16:43:39.519Z,20.36
2016-06-02T16:44:39.522Z,20.43
2016-06-02T16:45:39.493Z,20.33
2016-06-02T16:46:39.495Z,20.25
2016-06-02T16:47:39.483Z,20.13
2016-06-02T16:48:39.470Z,20.22
2016-06-02T16:49:39.457Z,20.22
2016-06-02T16:50:39.459Z,20.26
2016-06-02T16:51:39.446Z,20.25
2016-06-02T16:52:39.434Z,20.32
2016-06-02T16:53:39.436Z,20.2
2016-06-02T16:54:39.596Z,20.11
2016-06-02T16:55:40.254Z,20.2
2016-06-02T16:56:39.398Z,20.23
2016-06-02T16:57:39.416Z,20.28
2016-06-02T16:58:39.387Z,20.18
2016-06-02T16:59:39.389Z,20.23
2016-06-02T17:00:39.378Z,20.26
2016-06-02T17:01:39.348Z,20.32
2016-06-02T17:02:39.335Z,20.31
2016-06-02T17:03:39.323Z,20.35
2016-06-02T17:04:39.309Z,20.33
2016-06-02T17:05:39.328Z,20.33
2016-06-02T17:06:39.300Z,20.28
2016-06-02T17:07:39.286Z,20.22
2016-06-02T17:08:39.289Z,20.29
2016-06-02T17:09:39.292Z,20.23
2016-06-02T17:10:40.232Z,20.17
2016-06-02T17:11:39.266Z,20.17
2016-06-02T17:12:39.238Z,20.14
2016-06-02T17:13:39.302Z,20.2
2016-06-02T17:14:39.211Z,20.11
2016-06-02T17:15:39.214Z,20.18
2016-06-02T17:16:39.201Z,20.08
2016-06-02T17:17:39.204Z,20.04
2016-06-02T17:18:39.191Z,20.06
2016-06-02T17:19:39.224Z,20.06
2016-06-02T17:20:39.182Z,20.07
2016-06-02T17:21:39.277Z,20.06
2016-06-02T17:22:39.154Z,20.1
2016-06-02T17:23:39.173Z,19.98
2016-06-02T17:24:39.770Z,19.92
2016-06-02T17:25:38.976Z,19.95
2016-06-02T17:26:39.118Z,19.95
2016-06-02T17:27:39.090Z,19.95
2016-06-02T17:28:39.093Z,19.83
2016-06-02T17:29:39.096Z,19.8
2016-06-02T17:30:39.083Z,19.91
2016-06-02T17:31:39.054Z,19.96
2016-06-02T17:32:39.057Z,19.89
2016-06-02T17:33:39.045Z,19.95
2016-06-02T17:34:39.031Z,19.98
2016-06-02T17:35:39.034Z,20.01
2016-06-02T17:36:39.036Z,19.96
2016-06-02T17:37:39.086Z,19.98
2016-06-02T17:38:38.995Z,19.99
2016-06-02T17:39:39.936Z,20.01
2016-06-02T17:40:39.000Z,20.04
2016-06-02T17:41:38.972Z,20.06
2016-06-02T17:42:38.959Z,19.91
2016-06-02T17:43:38.961Z,19.92
2016-06-02T17:44:38.949Z,19.96
2016-06-02T17:45:38.952Z,19.95
2016-06-02T17:46:38.922Z,19.78
2016-06-02T17:47:38.910Z,19.93
2016-06-02T17:48:38.927Z,19.95
2016-06-02T17:49:38.900Z,20.04
2016-06-02T17:50:38.902Z,20.06
2016-06-02T17:51:38.873Z,20.06
2016-06-02T17:52:38.846Z,20.13
2016-06-02T17:53:38.863Z,20.13
2016-06-02T17:54:38.866Z,20.18
2016-06-02T17:55:38.853Z,20.16
2016-06-02T17:56:38.840Z,20.06
2016-06-02T17:57:38.827Z,20.08
2016-06-02T17:58:38.798Z,19.92
2016-06-02T17:59:38.801Z,19.93
2016-06-02T18:00:38.789Z,19.92
2016-06-02T18:01:38.792Z,19.81
2016-06-02T18:02:38.778Z,19.83
2016-06-02T18:03:38.765Z,19.8
2016-06-02T18:04:38.736Z,19.81
2016-06-02T18:05:38.755Z,19.92
2016-06-02T18:06:38.742Z,19.88
2016-06-02T18:07:38.729Z,19.78
2016-06-02T18:08:38.717Z,19.81
2016-06-02T18:09:38.703Z,19.78
2016-06-02T18:10:38.706Z,19.86
2016-06-02T18:11:38.693Z,19.88
2016-06-02T18:12:38.680Z,19.86
2016-06-02T18:13:38.652Z,19.81
2016-06-02T18:14:38.669Z,19.92
2016-06-02T18:15:38.642Z,19.83
2016-06-02T18:16:38.628Z,19.78
2016-06-02T18:17:38.443Z,19.8
2016-06-02T18:18:38.633Z,19.77
2016-06-02T18:19:38.605Z,19.63
2016-06-02T18:20:38.655Z,19.71
2016-06-02T18:21:38.579Z,19.67
2016-06-02T18:22:38.644Z,19.67
2016-06-02T18:23:38.554Z,19.61
2016-06-02T18:24:39.024Z,19.58
2016-06-02T18:25:39.263Z,19.67
2016-06-02T18:26:38.529Z,19.67
2016-06-02T18:27:38.532Z,19.67
2016-06-02T18:28:38.520Z,19.53
2016-06-02T18:29:38.492Z,19.55
2016-06-02T18:30:38.494Z,19.59
2016-06-02T18:31:38.466Z,19.61
2016-06-02T18:32:38.312Z,21.44
2016-06-02T18:33:38.470Z,20.88
2016-06-02T18:34:38.458Z,20.84
2016-06-02T18:35:38.429Z,20.92
2016-06-02T18:36:38.432Z,20.95
2016-06-02T18:37:38.450Z,21.1
2016-06-02T18:38:38.407Z,21.06
2016-06-02T18:39:38.705Z,21.28
2016-06-02T18:40:38.630Z,21.31
2016-06-02T18:41:38.399Z,21.34
2016-06-02T18:42:38.370Z,21.47
2016-06-02T18:43:38.358Z,21.46
2016-06-02T18:44:38.361Z,21.54
2016-06-02T18:45:38.347Z,21.52
2016-06-02T18:46:38.334Z,21.55
2016-06-02T18:47:38.181Z,21.61
2016-06-02T18:48:38.324Z,21.65
2016-06-02T18:49:38.311Z,21.66
2016-06-02T18:50:38.283Z,21.66
2016-06-02T18:51:38.269Z,21.66
2016-06-02T18:52:38.271Z,21.71
2016-06-02T18:53:38.244Z,21.8
2016-06-02T18:54:38.137Z,21.77
2016-06-02T18:55:38.187Z,21.8
2016-06-02T18:56:38.221Z,21.76
2016-06-02T18:57:38.238Z,21.73
2016-06-02T18:58:38.210Z,21.66
2016-06-02T18:59:38.213Z,21.59
2016-06-02T19:00:38.185Z,21.68
2016-06-02T19:01:38.171Z,21.61
2016-06-02T19:02:38.159Z,21.55
2016-06-02T19:03:38.254Z,21.5
2016-06-02T19:04:38.148Z,21.62
2016-06-02T19:05:38.167Z,21.59
2016-06-02T19:06:38.137Z,21.61
2016-06-02T19:07:38.188Z,21.52
2016-06-02T19:08:38.097Z,21.44
2016-06-02T19:09:39.115Z,21.4
2016-06-02T19:10:37.820Z,21.49
2016-06-02T19:11:38.073Z,21.47
2016-06-02T19:12:38.061Z,21.41
2016-06-02T19:13:38.095Z,21.47
2016-06-02T19:14:38.050Z,21.43
2016-06-02T19:15:38.037Z,21.41
2016-06-02T19:16:38.025Z,21.43
2016-06-02T19:17:38.027Z,21.36
2016-06-02T19:18:37.999Z,21.39
2016-06-02T19:19:38.002Z,21.39
2016-06-02T19:20:37.989Z,21.4
2016-06-02T19:21:37.991Z,21.44
2016-06-02T19:22:37.978Z,21.46
2016-06-02T19:23:37.965Z,21.36
2016-06-02T19:24:37.936Z,21.34
2016-06-02T19:25:38.564Z,21.37
2016-06-02T19:26:37.926Z,21.33
2016-06-02T19:27:37.773Z,21.39
2016-06-02T19:28:37.916Z,21.44
2016-06-02T19:29:37.887Z,21.43
2016-06-02T19:30:37.874Z,21.33
2016-06-02T19:31:37.877Z,21.34
2016-06-02T19:32:37.864Z,21.26
2016-06-02T19:33:37.851Z,21.34
2016-06-02T19:34:37.837Z,21.28
2016-06-02T19:35:37.685Z,21.24
2016-06-02T19:36:37.812Z,21.17
2016-06-02T19:37:37.815Z,21.28
2016-06-02T19:38:37.787Z,21.29
2016-06-02T19:39:37.805Z,21.28
2016-06-02T19:40:38.386Z,21.21
2016-06-02T19:41:37.748Z,21.21
2016-06-02T19:42:37.750Z,21.21
2016-06-02T19:43:37.737Z,21.18
2016-06-02T19:44:37.725Z,21.19
2016-06-02T19:45:37.727Z,21.13
2016-06-02T19:46:37.714Z,21.1
2016-06-02T19:47:37.702Z,21.13
2016-06-02T19:48:37.688Z,21.09
2016-06-02T19:49:37.691Z,21.06
2016-06-02T19:50:37.663Z,21.18
2016-06-02T19:51:37.650Z,21.22
2016-06-02T19:52:37.636Z,21.26
2016-06-02T19:53:37.624Z,21.18
2016-06-02T19:54:37.626Z,21.24
2016-06-02T19:55:37.816Z,21.31
2016-06-02T19:56:37.460Z,21.19
2016-06-02T19:57:37.587Z,21.22
2016-06-02T19:58:37.621Z,21.25
2016-06-02T19:59:37.593Z,21.25
2016-06-02T20:00:37.580Z,21.26
2016-06-02T20:01:37.551Z,21.21
2016-06-02T20:02:37.538Z,21.17
2016-06-02T20:03:37.541Z,21.13
2016-06-02T20:04:37.512Z,21.03
2016-06-02T20:05:37.500Z,21.11
2016-06-02T20:06:37.487Z,21.04
2016-06-02T20:07:37.489Z,21.04
2016-06-02T20:08:37.554Z,20.99
2016-06-02T20:09:38.870Z,21.03
2016-06-02T20:10:37.560Z,20.95
2016-06-02T20:11:37.454Z,20.88
2016-06-02T20:12:37.409Z,20.89
2016-06-02T20:13:37.396Z,20.92
2016-06-02T20:14:37.400Z,20.92
2016-06-02T20:15:37.386Z,20.92
2016-06-02T20:16:37.388Z,20.89
2016-06-02T20:17:37.360Z,20.95
2016-06-02T20:18:37.379Z,20.92
2016-06-02T20:19:37.366Z,20.89
2016-06-02T20:20:37.352Z,20.91
2016-06-02T20:21:37.324Z,20.92
2016-06-02T20:22:37.358Z,20.85
2016-06-02T20:23:37.314Z,20.94
2016-06-02T20:24:37.661Z,20.84
2016-06-02T20:25:37.194Z,20.87
2016-06-02T20:26:37.274Z,20.85
2016-06-02T20:27:37.263Z,20.82
2016-06-02T20:28:37.249Z,20.81
2016-06-02T20:29:37.236Z,20.79
2016-06-02T20:30:37.099Z,20.78
2016-06-02T20:31:37.227Z,20.82
2016-06-02T20:32:37.057Z,20.72
2016-06-02T20:33:37.216Z,20.73
2016-06-02T20:34:37.187Z,20.78
2016-06-02T20:35:37.173Z,20.67
2016-06-02T20:36:37.162Z,20.73
2016-06-02T20:37:37.148Z,20.78
2016-06-02T20:38:37.151Z,20.69
2016-06-02T20:39:37.138Z,20.76
2016-06-02T20:40:37.297Z,20.79
2016-06-02T20:41:37.112Z,20.76
2016-06-02T20:42:37.084Z,20.82
2016-06-02T20:43:37.071Z,20.7
2016-06-02T20:44:37.089Z,20.74
2016-06-02T20:45:37.076Z,20.76
2016-06-02T20:46:37.047Z,20.82
2016-06-02T20:47:37.050Z,20.79
2016-06-02T20:48:37.021Z,20.79
2016-06-02T20:49:37.039Z,20.73
2016-06-02T20:50:37.011Z,20.73
2016-06-02T20:51:37.045Z,20.78
2016-06-02T20:52:36.985Z,20.69
2016-06-02T20:53:36.988Z,20.69
2016-06-02T20:54:36.975Z,20.73
2016-06-02T20:55:36.946Z,20.7
2016-06-02T20:56:36.934Z,20.73
2016-06-02T20:57:36.936Z,20.74
2016-06-02T20:58:36.908Z,20.72
2016-06-02T20:59:36.926Z,20.73
2016-06-02T21:00:36.929Z,20.69
2016-06-02T21:01:36.901Z,20.73
2016-06-02T21:02:36.903Z,20.63
2016-06-02T21:03:36.890Z,20.69
2016-06-02T21:04:36.862Z,20.69
2016-06-02T21:05:36.911Z,20.66
2016-06-02T21:06:36.851Z,20.7
2016-06-02T21:07:36.823Z,20.62
2016-06-02T21:08:36.809Z,20.67
2016-06-02T21:09:36.875Z,20.64
2016-06-02T21:10:36.640Z,20.67
2016-06-02T21:11:36.787Z,20.76
2016-06-02T21:12:36.758Z,20.7
2016-06-02T21:13:36.742Z,20.72
2016-06-02T21:14:36.729Z,20.72
2016-06-02T21:15:36.716Z,20.72
2016-06-02T21:16:36.563Z,20.69
2016-06-02T21:17:36.784Z,20.69
2016-06-02T21:18:36.709Z,20.51
2016-06-02T21:19:36.711Z,20.54
2016-06-02T21:20:36.667Z,20.49
2016-06-02T21:21:39.000Z,20.52
2016-06-02T21:22:36.641Z,20.55
2016-06-02T21:23:36.675Z,20.47
2016-06-02T21:24:36.647Z,20.57
2016-06-02T21:25:38.293Z,20.49
2016-06-02T21:26:36.605Z,20.49
2016-06-02T21:27:36.593Z,20.54
2016-06-02T21:28:36.579Z,20.44
2016-06-02T21:29:36.582Z,20.47
2016-06-02T21:30:36.555Z,20.44
2016-06-02T21:31:36.540Z,20.4
2016-06-02T21:32:36.543Z,20.4
2016-06-02T21:33:36.515Z,20.38
2016-06-02T21:34:36.518Z,20.47
2016-06-02T21:35:36.521Z,20.38
2016-06-02T21:36:36.352Z,20.38
2016-06-02T21:37:36.494Z,20.52
2016-06-02T21:38:36.465Z,20.4
2016-06-02T21:39:36.328Z,20.36
2016-06-02T21:40:37.174Z,20.44
2016-06-02T21:41:36.461Z,20.47
2016-06-02T21:42:36.473Z,20.43
2016-06-02T21:43:36.501Z,20.48
2016-06-02T21:44:36.498Z,20.41
2016-06-02T21:45:36.525Z,20.47
2016-06-02T21:46:36.528Z,20.4
2016-06-02T21:47:36.507Z,20.41
2016-06-02T21:48:36.551Z,20.41
2016-06-02T21:49:36.516Z,20.33
2016-06-02T21:50:36.575Z,20.31
2016-06-02T21:51:36.489Z,20.33
2016-06-02T21:52:36.495Z,20.33
2016-06-02T21:53:36.484Z,20.38
2016-06-02T21:54:36.928Z,20.43
2016-06-02T21:55:36.511Z,20.43
2016-06-02T21:56:36.453Z,20.4
2016-06-02T21:57:36.473Z,20.36
2016-06-02T21:58:36.445Z,20.26
2016-06-02T21:59:36.449Z,20.36
2016-06-02T22:00:36.251Z,20.44
2016-06-02T22:01:36.410Z,20.33
2016-06-02T22:02:36.553Z,20.35
2016-06-02T22:03:36.385Z,20.31
2016-06-02T22:04:36.402Z,20.35
2016-06-02T22:05:36.359Z,20.33
2016-06-02T22:06:36.347Z,20.29
2016-06-02T22:07:36.318Z,20.22
2016-06-02T22:08:36.336Z,20.29
2016-06-02T22:09:36.339Z,20.35
2016-06-02T22:10:37.186Z,20.33
2016-06-02T22:11:36.297Z,20.35
2016-06-02T22:12:36.285Z,20.33
2016-06-02T22:13:36.256Z,20.33
2016-06-02T22:14:36.275Z,20.36
2016-06-02T22:15:36.277Z,20.33
2016-06-02T22:16:36.233Z,20.35
2016-06-02T22:17:36.235Z,20.33
2016-06-02T22:18:36.066Z,20.41
2016-06-02T22:19:36.209Z,20.33
2016-06-02T22:20:36.243Z,20.38
2016-06-02T22:21:36.184Z,20.31
2016-06-02T22:22:36.171Z,20.31
2016-06-02T22:23:36.142Z,20.23
2016-06-02T22:24:36.582Z,20.28
2016-06-02T22:25:36.148Z,20.23
2016-06-02T22:26:36.119Z,20.33
2016-06-02T22:27:36.106Z,20.33
2016-06-02T22:28:36.093Z,20.25
2016-06-02T22:29:36.095Z,20.26
2016-06-02T22:30:36.084Z,20.23
2016-06-02T22:31:36.070Z,20.17
2016-06-02T22:32:35.901Z,20.1
2016-06-02T22:33:36.044Z,20.22
2016-06-02T22:34:36.015Z,20.17
2016-06-02T22:35:36.017Z,20.14
2016-06-02T22:36:36.005Z,20.16
2016-06-02T22:37:35.992Z,20.13
2016-06-02T22:38:35.980Z,20.11
2016-06-02T22:39:35.966Z,20.1
2016-06-02T22:40:36.766Z,20.11
2016-06-02T22:41:35.956Z,20.18
2016-06-02T22:42:35.928Z,20.13
2016-06-02T22:43:35.931Z,20.11
2016-06-02T22:44:35.916Z,20.07
2016-06-02T22:45:35.749Z,20.1
2016-06-02T22:46:35.891Z,20.08
2016-06-02T22:47:35.894Z,19.99
2016-06-02T22:48:35.866Z,20.1
2016-06-02T22:49:35.853Z,20.07
2016-06-02T22:50:35.824Z,20.06
2016-06-02T22:51:35.905Z,20.06
2016-06-02T22:52:35.830Z,20.13
2016-06-02T22:53:35.816Z,20.13
2016-06-02T22:54:35.804Z,20.17
2016-06-02T22:55:36.181Z,20.08
2016-06-02T22:56:35.778Z,20.03
2016-06-02T22:57:35.749Z,20.1
2016-06-02T22:58:35.768Z,20.06
2016-06-02T22:59:35.754Z,20.06
2016-06-02T23:00:35.742Z,20.11
2016-06-02T23:01:35.745Z,20.1
2016-06-02T23:02:35.701Z,20.1
2016-06-02T23:03:35.687Z,20.1
2016-06-02T23:04:35.690Z,20.03
2016-06-02T23:05:35.678Z,20.03
2016-06-02T23:06:35.664Z,20.07
2016-06-02T23:07:35.651Z,20.06
2016-06-02T23:08:35.639Z,20.08
2016-06-02T23:09:35.641Z,20.06
2016-06-02T23:10:36.800Z,20.16
2016-06-02T23:11:35.614Z,20.06
2016-06-02T23:12:35.586Z,20.04
2016-06-02T23:13:35.589Z,20.08
2016-06-02T23:14:35.577Z,20.08
2016-06-02T23:15:35.563Z,20.04
2016-06-02T23:16:35.550Z,20.16
2016-06-02T23:17:35.538Z,20.06
2016-06-02T23:18:35.508Z,19.99
2016-06-02T23:19:35.558Z,20.11
2016-06-02T23:20:35.499Z,20.1
2016-06-02T23:21:35.470Z,20.13
2016-06-02T23:22:35.473Z,20.18
2016-06-02T23:23:35.506Z,20.11
2016-06-02T23:24:35.447Z,20.08
2016-06-02T23:25:35.699Z,20.17
2016-06-02T23:26:35.421Z,20.14
2016-06-02T23:27:35.424Z,20.18
2016-06-02T23:28:35.395Z,20.13
2016-06-02T23:29:35.398Z,20.07
2016-06-02T23:30:35.385Z,20.04
2016-06-02T23:31:35.373Z,20.13
2016-06-02T23:32:35.359Z,20.06
2016-06-02T23:33:35.189Z,20.06
2016-06-02T23:34:35.333Z,20.1
2016-06-02T23:35:35.351Z,20.1
2016-06-02T23:36:35.307Z,20.16
2016-06-02T23:37:35.295Z,20.07
2016-06-02T23:38:35.297Z,20.03
2016-06-02T23:39:35.175Z,20.08
2016-06-02T23:40:35.147Z,20.1
2016-06-02T23:41:35.134Z,20.04
2016-06-02T23:42:35.244Z,20.07
2016-06-02T23:43:35.232Z,20.04
2016-06-02T23:44:35.219Z,20.1
2016-06-02T23:45:35.206Z,20.04
2016-06-02T23:46:35.177Z,20.04
2016-06-02T23:47:35.197Z,19.96
2016-06-02T23:48:35.168Z,19.95
2016-06-02T23:49:35.171Z,20.06
2016-06-02T23:50:35.141Z,20.03
2016-06-02T23:51:35.144Z,19.96
2016-06-02T23:52:35.116Z,20.06
2016-06-02T23:53:35.135Z,20.08
2016-06-02T23:54:35.574Z,20.14
2016-06-02T23:55:35.765Z,20.2
2016-06-02T23:56:35.080Z,20.18
2016-06-02T23:57:35.067Z,20.17
2016-06-02T23:58:35.132Z,20.16
2016-06-02T23:59:35.041Z,20.14
